createdAt,value
2023-11-25T00:00:58.956Z,7.35
2023-11-25T00:03:26.627Z,6.63
2023-11-25T00:05:55.612Z,7.97
2023-11-25T00:08:23.140Z,9.02
2023-11-25T00:10:51.286Z,8.73
2023-11-25T00:13:18.912Z,5.93
2023-11-25T00:15:46.431Z,7.53
2023-11-25T00:18:14.311Z,12.32
2023-11-25T00:20:41.866Z,10.32
2023-11-25T00:25:36.778Z,5.20
2023-11-25T00:28:07.195Z,6.75
2023-11-25T00:30:34.884Z,7.00
2023-11-25T00:33:05.321Z,8.15
2023-11-25T00:35:32.942Z,7.30
2023-11-25T00:38:00.497Z,7.10
2023-11-25T00:40:29.944Z,8.32
2023-11-25T00:42:58.227Z,4.18
2023-11-25T00:45:27.981Z,8.48
2023-11-25T00:47:58.128Z,7.85
2023-11-25T00:50:26.425Z,9.38
2023-11-25T00:52:54.946Z,10.10
2023-11-25T00:55:22.573Z,7.65
2023-11-25T00:57:50.173Z,9.15
2023-11-25T01:00:18.237Z,6.00
2023-11-25T01:02:46.250Z,8.93
2023-11-25T01:05:14.408Z,6.82
2023-11-25T01:07:42.049Z,6.40
2023-11-25T01:10:11.129Z,8.88
2023-11-25T01:12:38.757Z,7.63
2023-11-25T01:15:06.998Z,4.15
2023-11-25T01:17:34.675Z,10.07
2023-11-25T01:20:02.745Z,10.55
2023-11-25T01:22:30.363Z,7.20
2023-11-25T01:24:57.927Z,6.72
2023-11-25T01:27:25.492Z,10.48
2023-11-25T01:29:54.830Z,7.35
2023-11-25T01:32:22.366Z,8.13
2023-11-25T01:37:19.465Z,7.60
2023-11-25T01:39:48.381Z,10.15
2023-11-25T01:42:16.061Z,10.82
2023-11-25T01:44:44.187Z,6.82
2023-11-25T01:47:13.768Z,6.28
2023-11-25T01:49:43.246Z,8.90
2023-11-25T01:52:12.068Z,11.77
2023-11-25T01:54:39.621Z,7.18
2023-11-25T01:57:07.612Z,7.22
2023-11-25T01:59:35.495Z,7.57
2023-11-25T02:02:04.643Z,6.50
2023-11-25T02:04:35.473Z,6.80
2023-11-25T02:07:03.762Z,6.10
2023-11-25T02:09:32.412Z,8.70
2023-11-25T02:12:02.990Z,6.80
2023-11-25T02:14:30.916Z,8.68
2023-11-25T02:16:58.820Z,4.85
2023-11-25T02:19:27.250Z,6.97
2023-11-25T02:21:54.951Z,7.95
2023-11-25T02:27:02.381Z,9.30
2023-11-25T02:29:30.216Z,7.75
2023-11-25T02:31:59.778Z,9.52
2023-11-25T02:34:28.206Z,8.15
2023-11-25T02:36:57.098Z,6.97
2023-11-25T02:39:25.808Z,7.85
2023-11-25T02:41:54.167Z,5.13
2023-11-25T02:44:22.618Z,6.82
2023-11-25T02:46:50.786Z,5.55
2023-11-25T02:49:18.511Z,8.68
2023-11-25T02:51:53.136Z,6.10
2023-11-25T02:54:23.113Z,5.35
2023-11-25T02:56:51.317Z,4.32
2023-11-25T02:59:19.619Z,4.22
2023-11-25T03:01:53.400Z,4.88
2023-11-25T03:04:24.495Z,4.28
2023-11-25T03:06:53.105Z,11.45
2023-11-25T03:09:21.236Z,6.55
2023-11-25T03:11:49.895Z,5.95
2023-11-25T03:14:17.965Z,6.10
2023-11-25T03:16:47.660Z,4.68
2023-11-25T03:19:15.423Z,9.35
2023-11-25T03:21:45.951Z,7.63
2023-11-25T03:24:15.350Z,5.00
2023-11-25T03:26:45.186Z,8.13
2023-11-25T03:29:12.883Z,7.40
2023-11-25T03:31:44.263Z,7.72
2023-11-25T03:34:12.081Z,6.55
2023-11-25T03:36:39.943Z,7.22
2023-11-25T03:39:11.045Z,6.22
2023-11-25T03:41:38.687Z,4.40
2023-11-25T03:44:07.816Z,5.97
2023-11-25T03:46:35.548Z,7.75
2023-11-25T03:49:03.539Z,9.60
2023-11-25T03:51:31.061Z,5.53
2023-11-25T03:53:58.727Z,4.35
2023-11-25T03:56:26.926Z,7.63
2023-11-25T03:58:55.567Z,5.82
2023-11-25T04:01:23.294Z,8.50
2023-11-25T04:03:50.919Z,9.85
2023-11-25T04:06:18.552Z,10.75
2023-11-25T04:08:46.040Z,4.15
2023-11-25T04:13:40.870Z,7.75
2023-11-25T04:16:08.830Z,5.03
2023-11-25T04:18:38.750Z,6.28
2023-11-25T04:21:06.771Z,7.00
2023-11-25T04:23:34.549Z,6.13
2023-11-25T04:28:31.229Z,9.40
2023-11-25T04:30:59.888Z,4.95
2023-11-25T04:33:27.421Z,6.07
2023-11-25T04:35:54.933Z,6.25
2023-11-25T04:40:49.741Z,4.20
2023-11-25T04:43:17.354Z,6.07
2023-11-25T04:45:44.976Z,7.90
2023-11-25T04:48:12.564Z,8.18
2023-11-25T04:50:42.068Z,7.07
2023-11-25T04:53:10.882Z,5.30
2023-11-25T04:55:38.513Z,8.02
2023-11-25T04:58:06.354Z,8.43
2023-11-25T05:00:33.827Z,7.18
2023-11-25T05:05:28.617Z,8.50
2023-11-25T05:10:23.733Z,9.60
2023-11-25T05:12:52.186Z,14.20
2023-11-25T05:15:19.830Z,6.15
2023-11-25T05:17:47.781Z,6.43
2023-11-25T05:20:17.851Z,6.25
2023-11-25T05:22:46.265Z,5.40
2023-11-25T05:25:17.457Z,8.68
2023-11-25T05:27:45.477Z,5.40
2023-11-25T05:30:15.179Z,8.65
2023-11-25T05:32:44.167Z,3.58
2023-11-25T05:35:14.891Z,8.95
2023-11-25T05:37:45.503Z,6.82
2023-11-25T05:40:16.120Z,6.78
2023-11-25T05:42:49.967Z,6.32
2023-11-25T05:45:19.600Z,7.78
2023-11-25T05:47:48.394Z,8.80
2023-11-25T05:50:22.181Z,9.48
2023-11-25T05:52:51.807Z,9.68
2023-11-25T05:55:22.915Z,5.22
2023-11-25T05:57:52.638Z,5.32
2023-11-25T06:00:22.531Z,8.15
2023-11-25T06:02:50.871Z,6.43
2023-11-25T06:05:19.058Z,7.57
2023-11-25T06:07:46.794Z,5.85
2023-11-25T06:10:16.035Z,8.27
2023-11-25T06:12:43.493Z,4.05
2023-11-25T06:17:39.910Z,8.50
2023-11-25T06:20:08.024Z,8.10
2023-11-25T06:22:35.807Z,5.13
2023-11-25T06:25:06.020Z,6.35
2023-11-25T06:27:33.560Z,13.45
2023-11-25T06:32:29.833Z,7.90
2023-11-25T06:34:59.557Z,9.18
2023-11-25T06:37:27.405Z,10.10
2023-11-25T06:39:54.970Z,6.97
2023-11-25T06:42:23.586Z,9.32
2023-11-25T06:44:52.552Z,6.32
2023-11-25T06:47:20.384Z,9.55
2023-11-25T06:49:52.292Z,8.98
2023-11-25T06:52:20.084Z,5.78
2023-11-25T06:54:47.632Z,6.72
2023-11-25T06:57:16.353Z,13.13
2023-11-25T06:59:46.902Z,8.98
2023-11-25T07:02:15.000Z,7.60
2023-11-25T07:04:42.728Z,9.65
2023-11-25T07:07:11.366Z,9.18
2023-11-25T07:09:38.897Z,15.13
2023-11-25T07:14:33.874Z,10.02
2023-11-25T07:19:28.977Z,12.30
2023-11-25T07:21:56.498Z,12.00
2023-11-25T07:27:03.055Z,6.95
2023-11-25T07:29:32.746Z,12.90
2023-11-25T07:32:03.907Z,12.32
2023-11-25T07:34:35.382Z,11.18
2023-11-25T07:37:03.227Z,9.30
2023-11-25T07:39:31.034Z,9.98
2023-11-25T07:41:59.410Z,8.93
2023-11-25T07:44:32.073Z,8.50
2023-11-25T07:47:03.072Z,13.52
2023-11-25T07:49:31.166Z,9.90
2023-11-25T07:51:59.123Z,5.93
2023-11-25T07:54:26.698Z,9.63
2023-11-25T07:56:54.316Z,9.90
2023-11-25T07:59:21.968Z,13.27
2023-11-25T08:01:49.737Z,8.35
2023-11-25T08:04:18.185Z,6.88
2023-11-25T08:06:45.970Z,6.50
2023-11-25T08:09:13.586Z,8.10
2023-11-25T08:11:41.199Z,11.05
2023-11-25T08:14:08.682Z,8.88
2023-11-25T08:16:36.349Z,9.55
2023-11-25T08:19:05.215Z,6.70
2023-11-25T08:21:32.851Z,8.90
2023-11-25T08:24:01.489Z,6.30
2023-11-25T08:26:29.625Z,10.95
2023-11-25T08:28:57.179Z,8.32
2023-11-25T08:31:24.898Z,6.75
2023-11-25T08:33:53.835Z,8.85
2023-11-25T08:36:21.611Z,7.00
2023-11-25T08:38:52.611Z,12.63
2023-11-25T08:41:20.410Z,10.27
2023-11-25T08:43:49.010Z,10.23
2023-11-25T08:46:21.169Z,10.48
2023-11-25T08:48:48.963Z,8.60
2023-11-25T08:51:16.388Z,11.23
2023-11-25T08:53:46.173Z,10.07
2023-11-25T08:56:14.549Z,10.25
2023-11-25T08:58:42.236Z,11.57
2023-11-25T09:01:09.875Z,23.27
2023-11-25T09:03:37.895Z,13.75
2023-11-25T09:06:08.295Z,10.07
2023-11-25T09:08:36.604Z,9.15
2023-11-25T09:11:04.464Z,12.38
2023-11-25T09:13:33.815Z,10.25
2023-11-25T09:16:02.270Z,11.57
2023-11-25T09:18:29.807Z,9.88
2023-11-25T09:20:57.893Z,11.77
2023-11-25T09:23:25.519Z,11.15
2023-11-25T09:25:53.046Z,11.90
2023-11-25T09:28:20.854Z,12.95
2023-11-25T09:30:48.581Z,13.00
2023-11-25T09:33:16.876Z,17.33
2023-11-25T09:35:44.407Z,11.18
2023-11-25T09:38:11.931Z,7.35
2023-11-25T09:40:40.470Z,8.45
2023-11-25T09:43:08.366Z,7.05
2023-11-25T09:45:37.015Z,11.25
2023-11-25T09:48:05.128Z,14.48
2023-11-25T09:50:35.919Z,12.40
2023-11-25T09:53:11.867Z,9.30
2023-11-25T09:55:39.815Z,8.88
2023-11-25T09:58:08.137Z,8.85
2023-11-25T10:00:39.252Z,10.90
2023-11-25T10:03:11.553Z,6.65
2023-11-25T10:05:39.407Z,13.23
2023-11-25T10:08:07.963Z,20.70
2023-11-25T10:10:35.871Z,15.82
2023-11-25T10:13:04.833Z,13.93
2023-11-25T10:15:38.215Z,12.60
2023-11-25T10:20:43.251Z,12.05
2023-11-25T10:23:10.829Z,14.95
2023-11-25T10:25:38.518Z,9.57
2023-11-25T10:28:10.486Z,7.75
2023-11-25T10:30:38.021Z,8.57
2023-11-25T10:33:08.995Z,11.85
2023-11-25T10:35:36.532Z,11.15
2023-11-25T10:38:06.619Z,7.47
2023-11-25T10:40:35.056Z,10.10
2023-11-25T10:43:05.561Z,5.43
2023-11-25T10:45:33.224Z,6.18
2023-11-25T10:48:01.606Z,6.20
2023-11-25T10:50:30.500Z,5.47
2023-11-25T10:53:02.213Z,10.15
2023-11-25T10:55:30.296Z,5.57
2023-11-25T10:58:02.107Z,8.05
2023-11-25T11:00:32.998Z,5.40
2023-11-25T11:03:06.999Z,6.60
2023-11-25T11:05:50.730Z,8.95
2023-11-25T11:08:24.011Z,7.68
2023-11-25T11:10:51.538Z,7.80
2023-11-25T11:13:27.308Z,12.60
2023-11-25T11:15:59.788Z,6.13
2023-11-25T11:18:37.705Z,6.93
2023-11-25T11:21:07.709Z,5.82
2023-11-25T11:23:38.865Z,8.27
2023-11-25T11:26:24.966Z,4.20
2023-11-25T11:29:11.022Z,7.73
2023-11-25T11:32:02.307Z,5.47
2023-11-25T11:34:35.104Z,9.63
2023-11-25T11:37:04.472Z,5.00
2023-11-25T11:39:39.438Z,3.35
2023-11-25T11:42:26.734Z,5.85
2023-11-25T11:45:19.053Z,6.38
2023-11-25T11:47:51.800Z,5.75
2023-11-25T11:50:24.612Z,3.05
2023-11-25T11:53:01.849Z,4.97
2023-11-25T11:55:41.046Z,4.05
2023-11-25T11:58:18.415Z,5.50
2023-11-25T12:03:36.137Z,6.50
2023-11-25T12:06:04.498Z,7.20
2023-11-25T12:08:33.214Z,7.38
2023-11-25T12:11:01.317Z,7.13
2023-11-25T12:13:39.849Z,7.93
2023-11-25T12:16:09.883Z,8.57
2023-11-25T12:18:37.984Z,6.45
2023-11-25T12:21:06.872Z,5.13
2023-11-25T12:23:45.061Z,4.63
2023-11-25T12:26:26.592Z,5.78
2023-11-25T12:28:54.576Z,5.63
2023-11-25T12:31:22.155Z,6.70
2023-11-25T12:33:50.005Z,5.72
2023-11-25T12:36:17.660Z,4.10
2023-11-25T12:38:45.287Z,7.20
2023-11-25T12:41:14.713Z,4.13
2023-11-25T12:44:07.304Z,6.43
2023-11-25T12:46:35.533Z,8.32
2023-11-25T12:49:23.532Z,6.05
2023-11-25T12:51:52.279Z,6.85
2023-11-25T12:54:21.110Z,4.82
2023-11-25T12:56:54.026Z,7.15
2023-11-25T12:59:24.117Z,6.72
2023-11-25T13:01:52.299Z,4.25
2023-11-25T13:04:19.971Z,7.55
2023-11-25T13:06:50.986Z,7.82
2023-11-25T13:09:23.370Z,3.45
2023-11-25T13:11:50.849Z,5.75
2023-11-25T13:14:18.415Z,4.22
2023-11-25T13:16:46.973Z,4.05
2023-11-25T13:19:14.838Z,6.18
2023-11-25T13:21:43.179Z,10.93
2023-11-25T13:24:11.010Z,8.38
2023-11-25T13:26:38.973Z,8.15
2023-11-25T13:29:06.477Z,9.30
2023-11-25T13:31:34.062Z,5.78
2023-11-25T13:34:01.657Z,6.75
2023-11-25T13:36:29.104Z,6.47
2023-11-25T13:38:56.518Z,5.88
2023-11-25T13:41:24.077Z,6.88
2023-11-25T13:43:51.718Z,2.78
2023-11-25T13:46:20.137Z,4.28
2023-11-25T13:48:47.720Z,5.82
2023-11-25T13:51:15.391Z,7.03
2023-11-25T13:53:42.817Z,6.93
2023-11-25T13:56:11.860Z,4.80
2023-11-25T13:58:40.089Z,6.85
2023-11-25T14:01:07.624Z,3.78
2023-11-25T14:03:35.440Z,4.57
2023-11-25T14:06:03.075Z,4.65
2023-11-25T14:08:30.601Z,4.03
2023-11-25T14:10:58.268Z,5.10
2023-11-25T14:13:25.826Z,4.57
2023-11-25T14:15:53.611Z,4.68
2023-11-25T14:18:21.178Z,4.70
2023-11-25T14:20:48.770Z,6.07
2023-11-25T14:23:16.316Z,6.03
2023-11-25T14:25:44.428Z,8.30
2023-11-25T14:28:14.569Z,7.22
2023-11-25T14:30:42.231Z,5.55
2023-11-25T14:33:10.262Z,2.58
2023-11-25T14:35:37.900Z,6.10
2023-11-25T14:38:06.859Z,5.47
2023-11-25T14:40:40.079Z,5.65
2023-11-25T14:43:08.236Z,8.50
2023-11-25T14:45:35.985Z,5.25
2023-11-25T14:48:06.114Z,5.57
2023-11-25T14:50:39.469Z,6.32
2023-11-25T14:53:08.658Z,8.80
2023-11-25T14:55:36.304Z,6.75
2023-11-25T14:58:04.415Z,8.32
2023-11-25T15:00:32.340Z,6.93
2023-11-25T15:03:00.741Z,9.45
2023-11-25T15:05:28.347Z,10.30
2023-11-25T15:07:55.858Z,7.78
2023-11-25T15:10:26.864Z,6.22
2023-11-25T15:12:57.062Z,8.32
2023-11-25T15:15:25.694Z,3.13
2023-11-25T15:17:53.459Z,3.00
2023-11-25T15:20:23.554Z,2.70
2023-11-25T15:22:52.592Z,4.15
2023-11-25T15:25:20.469Z,4.35
2023-11-25T15:27:48.635Z,5.20
2023-11-25T15:30:16.992Z,4.38
2023-11-25T15:32:44.542Z,3.33
2023-11-25T15:35:13.477Z,5.55
2023-11-25T15:37:41.258Z,6.75
2023-11-25T15:40:09.893Z,8.90
2023-11-25T15:42:37.521Z,5.35
2023-11-25T15:45:05.541Z,6.57
2023-11-25T15:47:33.204Z,5.38
2023-11-25T15:50:00.874Z,4.85
2023-11-25T15:52:28.446Z,6.72
2023-11-25T15:54:55.993Z,5.20
2023-11-25T15:57:24.175Z,6.13
2023-11-25T15:59:51.707Z,8.10
2023-11-25T16:02:20.538Z,5.18
2023-11-25T16:04:51.150Z,6.00
2023-11-25T16:07:19.814Z,4.45
2023-11-25T16:09:47.500Z,6.88
2023-11-25T16:12:16.228Z,6.78
2023-11-25T16:14:43.987Z,9.57
2023-11-25T16:17:14.279Z,5.70
2023-11-25T16:19:42.014Z,8.73
2023-11-25T16:22:09.713Z,9.38
2023-11-25T16:24:37.212Z,6.57
2023-11-25T16:27:05.753Z,8.90
2023-11-25T16:29:33.620Z,6.55
2023-11-25T16:32:01.360Z,4.65
2023-11-25T16:34:29.129Z,4.47
2023-11-25T16:36:56.660Z,5.78
2023-11-25T16:39:24.208Z,4.43
2023-11-25T16:41:51.780Z,5.93
2023-11-25T16:44:22.619Z,5.13
2023-11-25T16:46:50.240Z,4.15
2023-11-25T16:49:18.133Z,10.60
2023-11-25T16:51:45.704Z,4.25
2023-11-25T16:54:13.628Z,6.03
2023-11-25T16:56:41.261Z,5.80
2023-11-25T16:59:10.538Z,7.78
2023-11-25T17:01:41.715Z,6.32
2023-11-25T17:04:10.127Z,6.45
2023-11-25T17:06:38.501Z,9.77
2023-11-25T17:09:06.511Z,6.97
2023-11-25T17:11:34.022Z,7.90
2023-11-25T17:14:01.460Z,9.90
2023-11-25T17:18:59.032Z,10.77
2023-11-25T17:21:26.805Z,10.23
2023-11-25T17:23:55.593Z,9.95
2023-11-25T17:26:26.341Z,12.15
2023-11-25T17:28:54.651Z,10.35
2023-11-25T17:31:23.376Z,13.60
2023-11-25T17:33:52.236Z,12.93
2023-11-25T17:36:21.639Z,20.65
2023-11-25T17:38:50.502Z,28.90
2023-11-25T17:41:18.519Z,24.88
2023-11-25T17:43:49.129Z,19.77
2023-11-25T17:46:16.906Z,21.17
2023-11-25T17:48:44.472Z,15.20
2023-11-25T17:51:12.658Z,16.25
2023-11-25T17:53:40.367Z,19.55
2023-11-25T17:56:08.922Z,24.13
2023-11-25T17:58:36.532Z,23.42
2023-11-25T18:01:04.419Z,29.13
2023-11-25T18:03:33.357Z,23.15
2023-11-25T18:06:01.052Z,27.35
2023-11-25T18:08:30.052Z,29.83
2023-11-25T18:10:58.591Z,26.42
2023-11-25T18:13:26.549Z,27.40
2023-11-25T18:15:54.216Z,34.05
2023-11-25T18:18:21.811Z,50.67
2023-11-25T18:20:51.083Z,52.45
2023-11-25T18:23:18.743Z,48.38
2023-11-25T18:25:46.385Z,46.28
2023-11-25T18:28:13.987Z,65.50
2023-11-25T18:30:43.948Z,69.07
2023-11-25T18:33:11.691Z,57.30
2023-11-25T18:35:41.553Z,50.55
2023-11-25T18:38:09.699Z,46.90
2023-11-25T18:40:37.401Z,42.72
2023-11-25T18:43:05.156Z,39.05
2023-11-25T18:45:33.177Z,38.42
2023-11-25T18:48:00.985Z,40.42
2023-11-25T18:50:29.137Z,37.67
2023-11-25T18:52:56.849Z,41.72
2023-11-25T18:55:24.757Z,40.42
2023-11-25T18:57:52.178Z,36.78
2023-11-25T19:02:47.691Z,28.80
2023-11-25T19:05:16.811Z,28.80
2023-11-25T19:07:47.216Z,28.58
2023-11-25T19:10:20.166Z,31.73
2023-11-25T19:12:47.698Z,30.42
2023-11-25T19:17:42.650Z,26.52
2023-11-25T19:20:46.881Z,27.38
2023-11-25T19:23:15.310Z,29.30
2023-11-25T19:25:43.301Z,23.98
2023-11-25T19:28:10.968Z,23.60
2023-11-25T19:30:38.575Z,22.65
2023-11-25T19:33:06.318Z,21.50
2023-11-25T19:35:34.147Z,18.48
2023-11-25T19:40:29.049Z,17.30
2023-11-25T19:42:57.032Z,22.38
2023-11-25T19:45:24.664Z,19.98
2023-11-25T19:47:52.243Z,23.15
2023-11-25T19:50:20.750Z,18.30
2023-11-25T19:52:48.366Z,22.70
2023-11-25T19:55:16.024Z,22.40
2023-11-25T19:57:43.616Z,18.08
2023-11-25T20:00:12.272Z,24.13
2023-11-25T20:02:40.064Z,17.88
2023-11-25T20:05:08.754Z,21.55
2023-11-25T20:07:36.320Z,22.27
2023-11-25T20:10:05.300Z,21.55
2023-11-25T20:12:32.874Z,21.02
2023-11-25T20:15:00.383Z,24.33
2023-11-25T20:17:29.312Z,28.13
2023-11-25T20:19:57.671Z,35.67
2023-11-25T20:22:25.742Z,42.67
2023-11-25T20:24:53.300Z,48.70
2023-11-25T20:27:20.891Z,50.20
2023-11-25T20:29:49.426Z,40.05
2023-11-25T20:32:20.840Z,42.88
2023-11-25T20:34:49.304Z,37.75
2023-11-25T20:37:16.906Z,33.70
2023-11-25T20:39:44.612Z,36.70
2023-11-25T20:42:12.065Z,35.03
2023-11-25T20:47:07.171Z,31.00
2023-11-25T20:49:34.684Z,26.67
2023-11-25T20:54:29.718Z,29.13
2023-11-25T20:56:57.199Z,27.95
2023-11-25T21:01:52.103Z,28.23
2023-11-25T21:04:19.746Z,29.85
2023-11-25T21:06:47.258Z,33.28
2023-11-25T21:11:42.163Z,35.58
2023-11-25T21:14:11.499Z,34.22
2023-11-25T21:16:39.510Z,35.70
2023-11-25T21:19:08.565Z,34.15
2023-11-25T21:21:36.073Z,35.53
2023-11-25T21:24:03.620Z,36.13
2023-11-25T21:26:31.177Z,35.92
2023-11-25T21:31:26.628Z,39.65
2023-11-25T21:33:54.388Z,39.10
2023-11-25T21:36:21.833Z,37.92
2023-11-25T21:43:44.087Z,37.00
2023-11-25T21:46:11.680Z,32.40
2023-11-25T21:48:40.999Z,29.73
2023-11-25T21:51:09.569Z,30.88
2023-11-25T21:53:37.185Z,29.67
2023-11-25T21:56:06.784Z,28.25
2023-11-25T21:58:34.953Z,32.22
2023-11-25T22:01:02.898Z,33.17
2023-11-25T22:03:34.524Z,35.65
2023-11-25T22:06:02.472Z,31.65
2023-11-25T22:08:29.963Z,33.38
2023-11-25T22:13:24.810Z,30.92
2023-11-25T22:18:19.598Z,35.55
2023-11-25T22:25:55.979Z,32.97
2023-11-25T22:28:23.594Z,39.17
2023-11-25T22:30:53.903Z,39.10
2023-11-25T22:33:21.688Z,39.33
2023-11-25T22:35:53.809Z,42.80
2023-11-25T22:38:29.935Z,40.25
2023-11-25T22:41:02.650Z,41.10
2023-11-25T22:43:36.203Z,43.08
2023-11-25T22:46:07.446Z,40.40
2023-11-25T22:51:05.914Z,37.55
2023-11-25T22:53:33.695Z,32.38
2023-11-25T22:56:01.386Z,37.58
2023-11-25T22:58:29.458Z,32.05
2023-11-25T23:01:00.636Z,31.33
2023-11-25T23:03:28.690Z,36.47
2023-11-25T23:05:56.462Z,35.90
2023-11-25T23:08:25.103Z,35.20
2023-11-25T23:10:53.310Z,36.38
2023-11-25T23:13:21.585Z,34.70
2023-11-25T23:15:49.238Z,33.90
2023-11-25T23:20:44.387Z,34.05
2023-11-25T23:23:12.050Z,37.70
2023-11-25T23:25:39.594Z,32.72
2023-11-25T23:30:35.082Z,38.78
2023-11-25T23:35:30.159Z,36.90
2023-11-25T23:40:26.231Z,35.67
2023-11-25T23:42:53.727Z,39.25
2023-11-25T23:47:48.861Z,32.30
2023-11-25T23:50:16.524Z,32.80
2023-11-25T23:52:44.259Z,32.38
2023-11-25T23:55:11.797Z,29.60
2023-11-25T23:57:39.524Z,31.88
